Time;durP1;ratioP1;P1;durP2;ratioP2;P2;SDS_P1;SDS_P2;PMS_P1;PMS_P2;Temp;Humidity;BMP_temperature;BMP_pressure;BME280_temperature;BME280_humidity;BME280_pressure;Samples;Min_cycle;Max_cycle;Signal;HPM_P1;HPM_P2
2023/04/03 00:00:07;;;;;;;14.55;7.53;;;;;;;11.33;69.73;100897.97;4915613;29;20062;-83
2023/04/03 00:02:45;;;;;;;13.52;8.35;;;;;;;11.39;68.40;100889.47;4936855;28;20086;-83
2023/04/03 00:05:17;;;;;;;14.82;7.53;;;;;;;11.50;70.15;100899.16;4929972;28;20058;-84
2023/04/03 00:07:49;;;;;;;12.52;7.53;;;;;;;11.51;67.95;100909.66;4935923;28;20518;-82
2023/04/03 00:10:21;;;;;;;11.65;6.65;;;;;;;11.50;69.94;100905.31;4901157;28;20214;-83
2023/04/03 00:12:50;;;;;;;8.88;7.03;;;;;;;11.41;70.09;100884.00;4891750;28;20547;-83
2023/04/03 00:15:17;;;;;;;18.33;7.18;;;;;;;11.28;69.98;100853.19;4946025;28;20046;-83
2023/04/03 00:17:50;;;;;;;11.02;6.55;;;;;;;11.50;67.85;100888.53;4933941;28;20390;-83
2023/04/03 00:20:24;;;;;;;22.52;8.93;;;;;;;11.32;69.84;100865.25;4950442;28;20452;-81
2023/04/03 00:22:52;;;;;;;12.40;6.88;;;;;;;11.39;68.64;100880.66;4939215;28;20495;-85
2023/04/03 00:25:21;;;;;;;13.85;7.75;;;;;;;11.37;69.95;100871.97;4929248;28;20070;-83
2023/04/03 00:27:51;;;;;;;14.07;7.13;;;;;;;11.42;68.75;100867.09;4938381;28;20454;-82
2023/04/03 00:30:20;;;;;;;15.10;6.57;;;;;;;11.65;67.41;100879.22;4937203;28;20066;-82
2023/04/03 00:32:52;;;;;;;13.80;7.13;;;;;;;11.57;69.19;100883.50;4937348;28;20567;-81
2023/04/03 00:35:20;;;;;;;11.13;7.70;;;;;;;11.46;69.01;100866.69;4940017;28;20047;-82
2023/04/03 00:37:48;;;;;;;11.40;7.40;;;;;;;11.52;68.83;100879.44;4927731;28;20499;-84
2023/04/03 00:40:16;;;;;;;20.02;7.95;;;;;;;11.20;69.90;100853.03;4947919;28;20046;-84
2023/04/03 00:42:46;;;;;;;13.25;7.97;;;;;;;11.19;70.29;100846.06;4930509;28;20055;-81
2023/04/03 00:45:37;;;;;;;15.43;7.95;;;;;;;11.23;70.05;100863.38;4940414;28;20484;-84
2023/04/03 00:48:07;;;;;;;15.55;9.55;;;;;;;11.24;68.73;100854.47;4957024;28;20244;-83
2023/04/03 00:50:45;;;;;;;10.98;8.20;;;;;;;11.37;68.62;100880.78;4939562;28;20191;-82
2023/04/03 00:53:21;;;;;;;16.42;8.73;;;;;;;11.26;68.84;100868.47;4937669;28;20062;-83
2023/04/03 00:55:49;;;;;;;12.93;8.52;;;;;;;11.25;67.36;100869.41;4939616;28;20456;-81
2023/04/03 00:58:37;;;;;;;12.18;7.63;;;;;;;10.74;68.75;100764.06;4958623;28;20422;-82
2023/04/03 01:01:12;;;;;;;10.63;8.40;;;;;;;11.22;67.61;100858.22;4941432;28;20400;-83
2023/04/03 01:03:39;;;;;;;9.93;7.95;;;;;;;11.32;68.01;100870.56;4962976;28;20077;-84
2023/04/03 01:06:16;;;;;;;12.95;7.75;;;;;;;11.17;67.68;100871.09;4948420;28;20134;-82
2023/04/03 01:08:51;;;;;;;9.38;7.10;;;;;;;11.05;67.87;100862.34;4941563;28;20054;-83
2023/04/03 01:11:22;;;;;;;12.18;7.50;;;;;;;11.15;68.06;100875.69;4944483;28;20051;-83
2023/04/03 01:13:52;;;;;;;11.35;7.38;;;;;;;11.28;67.33;100885.09;4941620;28;20050;-82
2023/04/03 01:16:20;;;;;;;10.93;8.18;;;;;;;10.89;67.64;100826.47;4945884;28;20360;-83
2023/04/03 01:18:47;;;;;;;14.15;8.30;;;;;;;11.05;67.34;100857.03;4964049;28;20066;-83
2023/04/03 01:21:23;;;;;;;10.60;7.80;;;;;;;11.16;68.63;100880.84;4967365;28;20718;-83
2023/04/03 01:24:17;;;;;;;13.18;8.88;;;;;;;11.10;68.10;100882.22;4962530;28;20531;-82
2023/04/03 01:26:50;;;;;;;11.23;7.60;;;;;;;10.84;67.65;100855.25;4946659;28;20050;-82
2023/04/03 01:29:35;;;;;;;15.45;8.23;;;;;;;10.89;68.08;100863.66;4900611;28;20167;-83
2023/04/03 01:32:05;;;;;;;12.50;7.80;;;;;;;10.50;69.58;100822.78;4919263;28;20055;-83
2023/04/03 01:34:32;;;;;;;12.13;7.95;;;;;;;10.19;69.36;100795.31;4934396;28;20293;-83
2023/04/03 01:36:59;;;;;;;10.52;7.47;;;;;;;10.69;69.01;100867.19;4951725;28;20104;-83
2023/04/03 01:39:26;;;;;;;13.10;7.93;;;;;;;10.70;69.21;100866.22;4931459;28;20057;-82
2023/04/03 01:42:11;;;;;;;10.35;7.78;;;;;;;10.41;69.03;100821.78;4935030;28;20586;-84
2023/04/03 01:44:39;;;;;;;12.52;8.52;;;;;;;10.66;69.74;100864.81;4946355;28;20046;-83
2023/04/03 01:47:07;;;;;;;13.18;8.60;;;;;;;10.85;69.29;100872.88;4937594;28;20047;-84
2023/04/03 01:49:47;;;;;;;10.38;7.88;;;;;;;10.83;69.22;100880.13;4935676;28;20094;-83
2023/04/03 01:52:16;;;;;;;15.02;8.25;;;;;;;10.81;69.17;100876.75;4940601;28;20479;-83
2023/04/03 01:54:50;;;;;;;12.63;7.63;;;;;;;10.68;69.98;100881.47;4939595;28;20378;-82
2023/04/03 01:57:25;;;;;;;17.35;7.97;;;;;;;10.51;70.26;100863.44;4934239;28;20054;-84
2023/04/03 02:00:01;;;;;;;12.20;8.23;;;;;;;9.84;71.43;100759.31;4938776;28;20125;-83
2023/04/03 02:02:44;;;;;;;12.55;7.88;;;;;;;10.55;70.33;100864.88;4935578;28;20218;-83
2023/04/03 02:05:11;;;;;;;13.40;7.75;;;;;;;10.50;70.19;100853.81;4938617;28;20046;-83
2023/04/03 02:07:38;;;;;;;11.13;7.90;;;;;;;10.52;70.06;100865.97;4946535;28;20197;-84
2023/04/03 02:10:05;;;;;;;12.45;7.63;;;;;;;9.47;70.86;100688.16;4947444;28;20453;-84
2023/04/03 02:12:32;;;;;;;9.55;7.00;;;;;;;10.54;70.60;100864.03;4944254;28;20409;-83
2023/04/03 02:15:11;;;;;;;11.38;7.15;;;;;;;10.16;69.75;100780.50;4941596;28;20051;-82
2023/04/03 02:17:48;;;;;;;12.45;8.02;;;;;;;10.80;70.16;100859.16;4944959;28;20713;-83
2023/04/03 02:20:26;;;;;;;11.18;7.82;;;;;;;10.70;70.57;100842.31;4945533;28;20449;-81
2023/04/03 02:22:52;;;;;;;16.30;8.10;;;;;;;10.77;71.47;100869.19;4961943;28;20050;-83
2023/04/03 02:25:27;;;;;;;10.57;7.65;;;;;;;10.29;71.03;100796.25;4935913;28;20443;-83
2023/04/03 02:27:56;;;;;;;8.27;7.38;;;;;;;10.62;71.09;100844.78;4947506;28;20061;-81
2023/04/03 02:30:30;;;;;;;11.13;7.03;;;;;;;10.54;71.30;100841.97;4956172;28;20358;-82
2023/04/03 02:33:02;;;;;;;12.30;7.68;;;;;;;10.41;71.91;100816.47;4943553;28;20481;-81
2023/04/03 02:35:29;;;;;;;12.32;7.18;;;;;;;10.68;71.64;100854.91;4929479;28;20768;-82
2023/04/03 02:38:06;;;;;;;11.80;7.55;;;;;;;10.75;72.13;100856.03;4934682;28;20097;-82
2023/04/03 02:40:33;;;;;;;9.48;7.30;;;;;;;10.61;72.04;100843.13;4946371;28;20062;-82
2023/04/03 02:43:04;;;;;;;13.75;8.68;;;;;;;10.59;72.34;100834.44;4937400;28;20243;-81
2023/04/03 02:45:31;;;;;;;12.48;8.13;;;;;;;10.47;71.66;100821.22;4957132;28;20050;-82
2023/04/03 02:48:01;;;;;;;16.00;7.63;;;;;;;10.58;71.71;100832.75;4926304;28;20101;-81
2023/04/03 02:50:30;;;;;;;14.38;7.32;;;;;;;10.75;71.78;100864.00;4945891;28;20437;-81
2023/04/03 02:53:03;;;;;;;8.80;7.35;;;;;;;10.36;71.80;100786.78;4927062;28;20054;-81
2023/04/03 02:55:40;;;;;;;9.00;6.65;;;;;;;10.65;72.56;100829.44;4935459;28;20324;-82
2023/04/03 02:58:17;;;;;;;14.10;6.63;;;;;;;10.37;71.90;100787.66;4939770;28;20482;-81
2023/04/03 03:00:48;;;;;;;9.63;7.10;;;;;;;10.38;71.92;100779.53;4955189;28;20109;-80
2023/04/03 03:03:31;;;;;;;10.38;7.78;;;;;;;10.78;70.94;100823.94;4940172;28;20054;-81
2023/04/03 03:06:16;;;;;;;11.15;7.03;;;;;;;11.03;71.33;100848.34;4922631;28;20083;-82
2023/04/03 03:08:55;;;;;;;13.63;7.45;;;;;;;10.81;70.17;100797.09;4918409;29;20051;-81
2023/04/03 03:11:21;;;;;;;10.75;7.65;;;;;;;11.21;70.17;100861.84;4925595;28;20047;-81
2023/04/03 03:13:54;;;;;;;13.82;7.88;;;;;;;11.13;70.64;100844.75;4923848;29;20050;-82
2023/04/03 03:16:36;;;;;;;10.85;7.93;;;;;;;11.21;71.22;100857.38;4937118;28;20058;-81
2023/04/03 03:19:03;;;;;;;12.82;8.13;;;;;;;11.17;71.80;100855.13;4940500;28;20276;-82
2023/04/03 03:21:30;;;;;;;15.18;7.53;;;;;;;11.13;71.25;100857.19;4939689;28;20544;-81
2023/04/03 03:24:00;;;;;;;13.43;8.18;;;;;;;11.13;71.40;100857.19;4917707;28;20047;-83
2023/04/03 03:26:27;;;;;;;8.73;7.05;;;;;;;10.85;70.72;100809.16;4939346;28;20043;-82
2023/04/03 03:28:54;;;;;;;10.63;7.15;;;;;;;10.89;70.44;100826.47;4942306;28;20053;-81
2023/04/03 03:31:25;;;;;;;17.13;7.25;;;;;;;10.25;69.76;100694.81;4940362;28;20263;-81
2023/04/03 03:34:01;;;;;;;13.15;7.85;;;;;;;11.00;69.50;100806.13;4941360;28;20063;-82
2023/04/03 03:36:45;;;;;;;10.52;7.53;;;;;;;10.54;70.76;100751.69;4936928;28;20074;-81
2023/04/03 03:39:11;;;;;;;12.45;7.22;;;;;;;11.18;70.87;100852.31;4925225;28;20052;-83
2023/04/03 03:41:38;;;;;;;12.90;8.05;;;;;;;11.18;70.28;100847.00;4925653;28;20051;-82
2023/04/03 03:44:05;;;;;;;14.18;7.65;;;;;;;11.24;69.86;100862.44;4924817;28;20106;-82
2023/04/03 03:46:32;;;;;;;12.20;7.90;;;;;;;11.16;70.17;100845.47;4914195;29;20561;-82
2023/04/03 03:48:59;;;;;;;15.05;7.43;;;;;;;11.23;70.00;100844.78;4926623;29;20138;-82
2023/04/03 03:51:28;;;;;;;16.02;8.00;;;;;;;11.27;69.05;100843.56;4923631;29;20047;-81
2023/04/03 03:53:55;;;;;;;14.88;7.72;;;;;;;10.88;69.34;100776.16;4922948;29;20866;-80
2023/04/03 03:56:21;;;;;;;14.20;7.70;;;;;;;11.04;70.29;100812.84;4922722;28;20109;-82
2023/04/03 03:58:52;;;;;;;10.82;6.90;;;;;;;11.07;70.93;100839.16;4926263;28;20221;-83
2023/04/03 04:01:23;;;;;;;12.32;7.38;;;;;;;10.56;71.20;100763.88;4928227;29;20234;-81
2023/04/03 04:03:56;;;;;;;14.95;7.95;;;;;;;10.82;71.43;100814.69;4932486;28;20073;-84
2023/04/03 04:06:26;;;;;;;11.05;7.70;;;;;;;10.96;71.69;100833.94;4943439;28;20054;-82
2023/04/03 04:08:56;;;;;;;9.88;6.72;;;;;;;11.03;71.70;100835.91;4941678;28;20502;-82
2023/04/03 04:11:44;;;;;;;16.70;8.40;;;;;;;11.25;70.67;100850.81;4937434;28;20066;-82
2023/04/03 04:14:14;;;;;;;15.80;8.25;;;;;;;11.07;71.48;100825.88;4938627;28;20039;-82
2023/04/03 04:16:41;;;;;;;13.38;7.75;;;;;;;11.20;71.04;100850.38;4936171;28;20323;-82
2023/04/03 04:19:11;;;;;;;16.00;8.13;;;;;;;11.24;71.37;100862.44;4959001;28;20169;-81
2023/04/03 04:21:39;;;;;;;14.43;8.38;;;;;;;11.20;71.10;100868.97;4950164;28;20630;-83
2023/04/03 04:24:22;;;;;;;13.13;7.97;;;;;;;10.97;71.08;100838.25;4943792;28;20061;-82
2023/04/03 04:26:49;;;;;;;11.52;8.30;;;;;;;11.09;71.26;100834.53;4937382;28;20394;-82
2023/04/03 04:29:16;;;;;;;18.27;8.60;;;;;;;11.39;70.32;100862.06;4953224;28;20416;-83
2023/04/03 04:31:52;;;;;;;12.77;8.77;;;;;;;11.25;69.93;100853.47;4936846;28;20051;-83
2023/04/03 04:34:20;;;;;;;15.73;8.75;;;;;;;11.16;70.66;100843.63;4936478;28;20047;-83
2023/04/03 04:36:47;;;;;;;20.75;7.97;;;;;;;11.19;70.55;100872.63;4956336;28;20241;-82
2023/04/03 04:39:14;;;;;;;12.60;7.45;;;;;;;11.03;71.51;100869.59;4929586;28;20270;-81
2023/04/03 04:41:54;;;;;;;13.45;8.23;;;;;;;10.83;70.48;100858.88;4946722;28;20054;-81
2023/04/03 04:44:24;;;;;;;16.08;8.65;;;;;;;10.74;69.57;100841.09;4941085;28;20165;-82
2023/04/03 04:46:51;;;;;;;10.82;7.88;;;;;;;10.71;69.54;100833.38;4940989;28;20495;-82
2023/04/03 04:49:21;;;;;;;15.05;8.93;;;;;;;10.97;70.23;100886.06;4955377;28;20047;-81
2023/04/03 04:51:51;;;;;;;10.10;7.85;;;;;;;10.22;70.16;100773.84;4954468;28;20515;-81
2023/04/03 04:54:18;;;;;;;13.80;8.15;;;;;;;10.62;71.02;100842.97;4941447;28;20289;-81
2023/04/03 04:56:45;;;;;;;11.32;7.70;;;;;;;10.62;70.24;100850.09;4946140;28;20293;-81
2023/04/03 04:59:25;;;;;;;12.95;7.60;;;;;;;10.43;70.13;100813.66;4941847;28;20575;-83
2023/04/03 05:01:52;;;;;;;15.50;8.00;;;;;;;10.75;70.25;100865.81;4960838;28;20066;-82
2023/04/03 05:04:22;;;;;;;16.05;8.48;;;;;;;10.90;69.96;100891.91;4960583;28;20059;-82
2023/04/03 05:07:02;;;;;;;17.88;9.30;;;;;;;10.89;70.79;100890.22;4927892;28;20066;-82
2023/04/03 05:09:29;;;;;;;18.92;7.93;;;;;;;10.87;70.45;100886.88;4944486;28;20540;-83
2023/04/03 05:11:56;;;;;;;15.20;7.85;;;;;;;10.91;69.27;100898.91;4944349;28;20054;-82
2023/04/03 05:14:28;;;;;;;10.18;7.32;;;;;;;10.83;70.44;100890.75;4930155;28;20055;-82
2023/04/03 05:16:58;;;;;;;10.65;8.10;;;;;;;10.87;71.69;100897.50;4937494;28;20051;-81
2023/04/03 05:19:28;;;;;;;16.55;8.73;;;;;;;10.88;70.82;100909.81;4937314;28;20065;-80
2023/04/03 05:21:56;;;;;;;14.95;9.50;;;;;;;10.88;71.15;100915.09;4904073;28;20820;-81
2023/04/03 05:24:22;;;;;;;12.70;8.20;;;;;;;10.58;70.04;100853.97;4900699;29;20055;-80
2023/04/03 05:26:55;;;;;;;14.93;8.30;;;;;;;10.71;69.68;100870.56;4886621;29;20059;-82
2023/04/03 05:29:25;;;;;;;12.68;8.32;;;;;;;10.83;68.96;100901.38;4887222;29;20470;-82
2023/04/03 05:31:58;;;;;;;13.77;8.85;;;;;;;10.62;68.51;100872.19;4908737;28;20057;-83
2023/04/03 05:34:30;;;;;;;14.68;9.23;;;;;;;10.77;68.30;100891.28;4905712;29;20122;-83
2023/04/03 05:37:04;;;;;;;14.35;9.35;;;;;;;10.72;66.73;100882.03;4878308;28;20048;-82
2023/04/03 05:39:31;;;;;;;13.77;9.63;;;;;;;10.34;66.16;100803.81;4910862;29;20055;-81
2023/04/03 05:42:03;;;;;;;17.55;10.15;;;;;;;10.93;66.12;100903.25;4905709;28;20556;-82
2023/04/03 05:44:37;;;;;;;16.85;10.10;;;;;;;10.68;65.84;100866.34;4925557;28;20055;-83
2023/04/03 05:47:04;;;;;;;13.38;10.20;;;;;;;9.92;65.92;100740.13;4931096;28;20378;-82
2023/04/03 05:49:40;;;;;;;17.30;11.30;;;;;;;10.23;64.64;100786.13;4893963;29;20059;-81
2023/04/03 05:52:41;;;;;;;14.02;11.02;;;;;;;10.98;64.70;100919.66;4889975;28;20106;-82
2023/04/03 05:55:21;;;;;;;;;;;;;;;11.07;64.96;100918.88;4864328;28;20334;-82
2023/04/03 05:58:00;;;;;;;16.52;11.07;;;;;;;11.08;64.85;100910.75;4896377;28;20064;-80
2023/04/03 06:00:32;;;;;;;16.80;10.82;;;;;;;11.04;64.60;100904.00;4924834;28;20130;-81
2023/04/03 06:03:01;;;;;;;18.38;11.23;;;;;;;11.22;65.23;100930.81;4946616;28;20065;-82
2023/04/03 06:05:37;;;;;;;16.45;12.25;;;;;;;11.30;64.82;100927.50;4943058;28;20789;-81
2023/04/03 06:08:16;;;;;;;14.40;11.40;;;;;;;11.30;64.32;100917.69;4942594;28;20300;-82
2023/04/03 06:10:57;;;;;;;24.52;13.48;;;;;;;11.17;63.63;100890.50;4952140;28;20053;-82
2023/04/03 06:13:24;;;;;;;17.63;11.13;;;;;;;11.44;63.45;100921.81;4937180;28;20125;-81
2023/04/03 06:15:53;;;;;;;20.30;11.85;;;;;;;11.24;63.78;100888.19;4943265;28;20053;-81
2023/04/03 06:18:24;;;;;;;21.98;12.63;;;;;;;11.45;63.48;100923.47;4952285;28;20050;-81
2023/04/03 06:21:02;;;;;;;15.80;12.93;;;;;;;11.52;62.84;100929.13;4974520;28;20050;-82
2023/04/03 06:23:36;;;;;;;16.92;11.43;;;;;;;11.26;62.59;100881.75;4970355;28;20054;-82
2023/04/03 06:26:03;;;;;;;19.88;12.68;;;;;;;11.54;63.14;100921.84;4973502;28;20401;-81
2023/04/03 06:28:30;;;;;;;19.95;13.15;;;;;;;11.63;62.75;100941.47;4967169;28;20436;-80
2023/04/03 06:30:57;;;;;;;22.00;13.02;;;;;;;11.19;63.60;100851.38;4969973;28;20109;-82
2023/04/03 06:33:26;;;;;;;19.27;12.82;;;;;;;11.51;62.91;100914.16;4945832;28;20437;-81
2023/04/03 06:36:12;;;;;;;17.65;13.45;;;;;;;11.62;63.35;100932.63;4949157;28;20077;-82
2023/04/03 06:38:39;;;;;;;29.85;22.33;;;;;;;11.62;63.79;100940.63;4944626;28;20049;-82
2023/04/03 06:41:10;;;;;;;22.35;14.15;;;;;;;11.40;63.66;100892.97;4950500;28;20070;-83
2023/04/03 06:43:46;;;;;;;21.52;14.23;;;;;;;11.64;64.22;100938.66;4944291;28;20070;-84
2023/04/03 06:46:19;;;;;;;22.50;14.98;;;;;;;11.67;63.32;100943.72;4944132;28;20061;-82
2023/04/03 06:48:53;;;;;;;18.73;13.43;;;;;;;11.54;63.44;100917.38;4945570;28;20035;-82
2023/04/03 06:51:26;;;;;;;20.83;14.52;;;;;;;11.46;64.04;100903.91;4947105;28;20421;-79
2023/04/03 06:53:57;;;;;;;28.90;14.15;;;;;;;11.68;63.99;100934.78;4943672;28;20042;-79
2023/04/03 06:56:29;;;;;;;20.38;14.50;;;;;;;11.85;62.78;100941.25;4968199;28;20074;-81
2023/04/03 06:59:02;;;;;;;24.00;15.10;;;;;;;11.76;62.43;100923.44;4962848;28;20108;-82
2023/04/03 07:01:35;;;;;;;22.35;14.77;;;;;;;10.88;62.80;100779.66;4963828;28;20108;-82
2023/04/03 07:04:13;;;;;;;21.08;14.48;;;;;;;11.04;63.10;100792.41;4965527;28;20479;-81
2023/04/03 07:06:40;;;;;;;18.67;13.13;;;;;;;12.06;62.27;100949.16;4969189;28;20062;-81
2023/04/03 07:09:22;;;;;;;22.42;16.23;;;;;;;11.88;62.65;100898.44;4949107;28;20047;-81
2023/04/03 07:11:49;;;;;;;29.25;15.68;;;;;;;12.23;62.64;100954.78;4955096;28;20097;-79
2023/04/03 07:14:16;;;;;;;20.50;14.80;;;;;;;12.34;62.60;100952.00;4943347;28;20042;-81
2023/04/03 07:19:46;;;;;;;19.20;14.93;;;;;;;12.21;62.61;100922.13;4947902;28;20053;-82
2023/04/03 07:22:16;;;;;;;21.38;15.43;;;;;;;12.27;62.45;100918.94;4956734;28;20195;-83
2023/04/03 07:24:43;;;;;;;21.20;16.25;;;;;;;12.48;61.66;100943.59;4942734;28;20456;-82
2023/04/03 07:27:17;;;;;;;24.92;17.27;;;;;;;12.20;61.70;100910.66;4944076;28;20051;-80
2023/04/03 07:29:44;;;;;;;25.13;16.70;;;;;;;12.57;61.98;100957.88;4940059;28;20364;-82
2023/04/03 07:32:12;;;;;;;28.65;17.08;;;;;;;12.52;61.85;100947.66;4958982;28;20082;-82
2023/04/03 07:34:48;;;;;;;26.00;16.98;;;;;;;12.42;61.71;100941.50;4945622;28;20163;-81
2023/04/03 07:37:22;;;;;;;28.42;18.20;;;;;;;12.60;62.45;100963.78;4940747;28;20149;-82
2023/04/03 07:40:01;;;;;;;25.50;17.77;;;;;;;12.69;62.72;100970.06;4940323;28;20121;-83
2023/04/03 07:42:31;;;;;;;28.23;19.10;;;;;;;12.19;62.04;100882.38;4945364;28;20521;-82
2023/04/03 07:45:08;;;;;;;26.42;19.05;;;;;;;12.79;62.77;100968.25;4942761;28;20440;-83
2023/04/03 07:47:34;;;;;;;25.02;18.25;;;;;;;12.54;61.88;100916.41;4942667;28;20295;-82
2023/04/03 07:50:12;;;;;;;26.15;19.73;;;;;;;12.15;62.06;100849.84;4944456;28;20046;-82
2023/04/03 07:52:50;;;;;;;25.08;19.40;;;;;;;12.69;61.76;100939.94;4945193;28;20551;-81
2023/04/03 07:55:20;;;;;;;29.65;19.73;;;;;;;12.92;62.00;100983.13;4944270;28;20053;-81
2023/04/03 07:57:55;;;;;;;28.75;19.45;;;;;;;12.94;62.16;100978.47;4948957;28;20539;-81
2023/04/03 08:00:25;;;;;;;32.25;19.83;;;;;;;12.85;62.84;100956.19;4941762;28;20501;-79
2023/04/03 08:02:53;;;;;;;30.15;20.65;;;;;;;13.04;63.55;100972.13;4960168;28;20105;-81
2023/04/03 08:05:21;;;;;;;28.88;20.15;;;;;;;12.65;64.08;100914.59;4948034;28;20058;-83
2023/04/03 08:07:49;;;;;;;25.77;20.23;;;;;;;13.07;64.33;100988.84;4930025;28;20055;-82
2023/04/03 08:10:17;;;;;;;23.27;16.45;;;;;;;12.84;64.63;100951.84;4930589;28;20405;-81
2023/04/03 08:12:59;;;;;;;27.08;16.98;;;;;;;12.98;65.01;100970.03;4944515;28;20154;-81
2023/04/03 08:15:36;;;;;;;35.00;20.60;;;;;;;13.14;65.09;100982.78;4923209;28;20045;-81
2023/04/03 08:18:07;;;;;;;26.98;18.55;;;;;;;13.14;64.79;100956.13;4927292;28;20406;-82
2023/04/03 08:20:34;;;;;;;30.98;18.63;;;;;;;13.26;64.57;100959.47;4947300;28;20372;-80
2023/04/03 08:23:01;;;;;;;28.23;19.65;;;;;;;13.53;64.45;100965.84;4921348;28;20405;-80
2023/04/03 08:25:41;;;;;;;27.30;16.98;;;;;;;13.74;63.90;100984.28;4942930;28;20576;-82
2023/04/03 08:28:09;;;;;;;24.50;17.27;;;;;;;13.77;63.08;100952.81;4931897;28;20050;-80
2023/04/03 08:30:42;;;;;;;19.15;14.20;;;;;;;13.48;62.73;100904.13;4931597;29;20051;-81
2023/04/03 08:33:23;;;;;;;20.27;13.00;;;;;;;13.46;62.53;100926.41;4913737;28;20050;-82
2023/04/03 08:35:50;;;;;;;34.72;14.55;;;;;;;13.37;62.74;100903.28;4925979;28;20106;-83
2023/04/03 08:38:17;;;;;;;19.23;15.10;;;;;;;12.51;62.25;100740.94;4928988;29;20505;-83
2023/04/03 08:40:46;;;;;;;21.83;13.65;;;;;;;13.78;62.09;100943.81;4927751;29;20055;-81
2023/04/03 08:43:42;;;;;;;25.08;14.15;;;;;;;13.93;61.86;100967.34;4927607;29;20054;-80
2023/04/03 08:46:14;;;;;;;17.17;12.07;;;;;;;13.99;61.61;100950.72;4913010;28;20486;-81
2023/04/03 08:48:43;;;;;;;17.92;11.77;;;;;;;14.23;60.47;100964.34;4925553;29;20450;-81
2023/04/03 08:51:22;;;;;;;15.35;9.73;;;;;;;14.18;60.53;100950.59;4938038;28;20047;-83
2023/04/03 08:54:22;;;;;;;25.20;13.38;;;;;;;13.95;61.41;100930.66;4932039;28;20202;-81
2023/04/03 08:57:00;;;;;;;17.30;12.23;;;;;;;14.06;61.50;100982.00;4920563;28;20494;-79
2023/04/03 08:59:34;;;;;;;17.58;12.73;;;;;;;14.15;61.95;100998.97;4961355;28;20422;-83
2023/04/03 09:02:13;;;;;;;18.90;14.10;;;;;;;14.13;62.43;100994.75;4947710;28;20405;-83
2023/04/03 09:04:46;;;;;;;14.95;11.75;;;;;;;13.15;62.38;100845.84;4962136;28;20057;-80
2023/04/03 09:07:27;;;;;;;14.20;10.85;;;;;;;13.73;62.26;100918.56;4945884;28;20042;-82
2023/04/03 09:10:15;;;;;;;14.60;10.20;;;;;;;14.23;61.98;100995.53;4970946;28;20049;-80
2023/04/03 09:12:59;;;;;;;17.05;10.13;;;;;;;14.14;61.42;100977.75;4963914;28;20058;-82
2023/04/03 09:15:40;;;;;;;19.10;9.07;;;;;;;14.14;62.09;100991.09;4940575;28;20122;-82
2023/04/03 09:18:28;;;;;;;17.10;9.02;;;;;;;14.24;61.70;100992.72;4947683;28;20398;-81
2023/04/03 09:21:34;;;;;;;14.95;9.70;;;;;;;14.12;61.66;100988.56;4941160;28;20055;-81
2023/04/03 09:24:04;;;;;;;14.35;9.00;;;;;;;13.51;61.81;100901.97;4958554;28;20497;-81
2023/04/03 09:26:38;;;;;;;13.50;9.68;;;;;;;14.07;61.97;101002.38;4940381;28;20515;-83
2023/04/03 09:29:07;;;;;;;14.85;8.65;;;;;;;13.92;61.72;100992.34;4943145;28;20481;-83
2023/04/03 09:31:43;;;;;;;16.15;9.75;;;;;;;12.76;62.37;100815.84;4948410;28;20409;-83
2023/04/03 09:34:24;;;;;;;15.38;9.68;;;;;;;13.99;61.56;100999.63;4962028;28;20078;-81
2023/04/03 09:36:55;;;;;;;20.25;9.95;;;;;;;12.42;62.32;100773.75;4963949;28;20123;-82
2023/04/03 09:39:28;;;;;;;14.20;8.95;;;;;;;13.63;62.77;100980.00;4969258;28;20065;-83
2023/04/03 09:42:01;;;;;;;16.58;11.48;;;;;;;13.64;62.65;100989.66;4975613;28;20053;-81
2023/04/03 09:44:38;;;;;;;14.07;9.82;;;;;;;13.30;63.18;100920.03;4971682;28;20058;-80
2023/04/03 09:47:38;;;;;;;20.20;11.13;;;;;;;13.02;62.60;100867.50;4943390;28;20265;-83
2023/04/03 09:50:15;;;;;;;19.95;11.80;;;;;;;13.62;62.33;100939.13;4964889;28;20137;-82
2023/04/03 09:52:47;;;;;;;15.98;11.18;;;;;;;13.59;62.82;100950.13;4960201;28;20051;-83
2023/04/03 09:55:28;;;;;;;17.25;10.85;;;;;;;13.79;62.95;100992.72;4936081;28;20050;-82
2023/04/03 09:58:04;;;;;;;17.60;11.05;;;;;;;13.76;62.64;100996.50;4962999;28;20053;-80
2023/04/03 10:00:46;;;;;;;18.10;10.48;;;;;;;13.68;61.85;100954.53;4967209;28;20113;-82
2023/04/03 10:03:31;;;;;;;14.23;9.77;;;;;;;13.75;62.78;100978.81;4947697;28;20169;-82
2023/04/03 10:06:01;;;;;;;20.42;9.80;;;;;;;13.68;63.33;100983.06;4953463;28;20050;-81
2023/04/03 10:08:33;;;;;;;13.95;9.18;;;;;;;13.82;62.15;100971.06;4951130;28;20500;-80
2023/04/03 10:11:16;;;;;;;20.92;10.23;;;;;;;13.67;62.50;100984.06;4966864;28;20061;-82
2023/04/03 10:13:51;;;;;;;15.45;9.07;;;;;;;13.46;63.51;100938.94;4966085;28;20050;-82
2023/04/03 10:16:24;;;;;;;14.30;8.02;;;;;;;13.76;62.51;100972.50;4946206;28;20129;-82
2023/04/03 10:19:25;;;;;;;13.23;6.97;;;;;;;13.61;62.39;100953.44;4965144;28;20061;-82
2023/04/03 10:22:30;;;;;;;12.00;5.93;;;;;;;13.71;61.78;100932.06;4972085;28;20054;-81
2023/04/03 10:25:07;;;;;;;12.88;5.63;;;;;;;14.07;60.94;100975.66;4924365;28;20074;-81
2023/04/03 10:27:46;;;;;;;13.52;4.80;;;;;;;13.61;58.06;100861.91;4970296;28;20349;-81
2023/04/03 10:30:36;;;;;;;8.97;4.47;;;;;;;13.92;57.38;100938.97;4952663;28;20039;-80
2023/04/03 10:33:26;;;;;;;10.95;4.95;;;;;;;13.71;57.30;100888.53;4951600;28;20070;-80
2023/04/03 10:36:35;;;;;;;10.95;4.40;;;;;;;14.18;57.23;100968.47;4936688;28;20241;-84
2023/04/03 10:39:15;;;;;;;7.97;5.07;;;;;;;14.16;58.20;100978.44;4941869;28;20046;-82
2023/04/03 10:42:06;;;;;;;11.23;5.07;;;;;;;14.28;57.81;100978.06;4943030;28;20058;-83
2023/04/03 10:45:20;;;;;;;8.70;4.70;;;;;;;14.28;57.04;100966.56;4958526;28;20543;-82
2023/04/03 10:48:15;;;;;;;10.80;4.97;;;;;;;14.21;57.46;100950.28;4942840;28;20051;-85
2023/04/03 10:51:09;;;;;;;5.80;3.97;;;;;;;14.36;56.33;100963.97;4947149;28;20435;-82
2023/04/03 10:53:44;;;;;;;7.85;4.45;;;;;;;13.84;55.76;100841.00;4964345;28;20043;-83
2023/04/03 10:56:21;;;;;;;8.77;3.92;;;;;;;14.81;55.30;100954.19;4944829;28;20465;-82
2023/04/03 10:59:01;;;;;;;14.55;4.40;;;;;;;14.81;53.30;100904.25;4946095;28;20432;-83
2023/04/03 11:01:35;;;;;;;15.10;5.28;;;;;;;15.21;52.09;100952.78;4970238;28;20335;-81
2023/04/03 11:04:05;;;;;;;7.10;4.35;;;;;;;15.55;50.72;100948.28;4962928;28;20504;-83
2023/04/03 11:06:39;;;;;;;7.85;4.10;;;;;;;15.48;51.30;100879.53;4944899;28;20436;-82
2023/04/03 11:09:21;;;;;;;7.38;3.42;;;;;;;15.91;50.65;100886.53;4948445;28;20058;-82
2023/04/03 11:11:53;;;;;;;9.00;3.85;;;;;;;16.29;49.20;100921.75;4943690;28;20053;-82
2023/04/03 11:14:37;;;;;;;6.55;3.05;;;;;;;16.38;44.82;100920.78;4954642;28;20066;-84
2023/04/03 11:17:21;;;;;;;5.97;3.45;;;;;;;16.65;43.40;100934.81;4958393;28;20479;-81
2023/04/03 11:20:10;;;;;;;5.32;2.40;;;;;;;16.75;44.04;100932.81;4958987;28;20089;-84
2023/04/03 11:23:14;;;;;;;5.65;2.92;;;;;;;16.57;43.61;100862.47;4955553;28;20050;-82
2023/04/03 11:25:43;;;;;;;4.30;3.30;;;;;;;17.10;42.87;100914.69;4947593;28;20065;-83
2023/04/03 11:28:14;;;;;;;8.97;3.70;;;;;;;17.38;41.91;100912.44;4955043;28;20231;-82
2023/04/03 11:30:48;;;;;;;6.20;3.73;;;;;;;17.50;42.77;100921.78;4943496;28;20066;-83
2023/04/03 11:33:32;;;;;;;9.13;3.40;;;;;;;17.30;42.02;100921.31;4942920;28;20748;-83
2023/04/03 11:36:26;;;;;;;8.80;3.38;;;;;;;17.36;41.66;100913.63;4940700;28;20050;-83
2023/04/03 11:39:16;;;;;;;6.03;3.33;;;;;;;17.29;41.75;100890.16;4962212;28;20520;-80
2023/04/03 11:41:50;;;;;;;5.50;3.25;;;;;;;17.56;42.34;100909.50;4942803;28;20065;-82
2023/04/03 11:44:37;;;;;;;8.43;3.15;;;;;;;16.93;41.16;100753.00;4959653;28;20384;-82
2023/04/03 11:47:12;;;;;;;8.68;3.53;;;;;;;18.08;39.94;100900.88;4942419;28;20058;-84
2023/04/03 11:49:59;;;;;;;8.85;3.22;;;;;;;18.41;40.59;100892.53;4945144;28;20899;-83
2023/04/03 11:52:39;;;;;;;8.07;2.95;;;;;;;18.52;39.03;100857.16;4973061;28;20191;-83